• Join FlightAware (Why Join?)
  • Login
  • US Flag 
07:29PM EDT


 

Airport Tracker/Info


-or-


 

Live Flight TrackerFlight Track Log ✈ VH-LTB ✈ 22-May-2013 ✈ YBAS / ASP - YCCK

Flight Track Log - Related Links

Times and Time Zones

All times are in EDT time to prevent confusion due to time zone crossing. See the VH-LTB flight status page for this flight to view local times or setup timezone preferences in your user account.

Time Position Orientation Groundspeed Altitude Reporting Facility
EDT Latitude Longitude Course Direction KTS MPH feet Rate Location/Type
06:29PM -23.6115 134.0084 27° Northeast  Level Aus ATC (Calculated)
06:29PM -23.5654 134.0336 26° Northeast  Level Aus ATC (Calculated)
06:31PM -23.5192 134.0586 26° Northeast  Level Estimated
06:32PM -23.4760 134.0821 26° Northeast  Level Estimated
06:32PM -23.4292 134.1078 209° Southwest  Level Aus ATC (Calculated)
06:33PM -23.4327 134.1056 26° Northeast  Level Estimated
06:34PM -23.3830 134.1328 26° Northeast  Level Estimated
06:34PM -23.3426 134.1549 24° Northeast  Level Aus ATC (Calculated)
06:35PM -23.3397 134.1562 26° Northeast  Level Estimated
06:36PM -23.2812 134.1881 26° Northeast  Level Estimated
06:37PM -23.2373 134.2118 26° Northeast  Level Estimated
06:37PM -23.1748 134.2459 207° Southwest  Level Aus ATC (Calculated)
06:38PM -23.1934 134.2355 26° Northeast  Level Estimated
06:39PM -23.1155 134.2779 26° Northeast  Level Estimated
06:40PM -23.0716 134.3015 26° Northeast  Level Estimated
06:41PM -23.0277 134.3252 26° Northeast  Level Estimated
06:42PM -22.9838 134.3488 26° Northeast  Level Estimated
06:43PM -22.9399 134.3724 26° Northeast  Level Estimated
06:44PM -22.8960 134.3960 26° Northeast  Level Estimated
06:45PM -22.8521 134.4196 26° Northeast  Level Estimated
06:46PM -22.8082 134.4432 26° Northeast  Level Estimated
06:47PM -22.7643 134.4667 26° Northeast  Level Estimated
06:48PM -22.7203 134.4902 26° Northeast  Level Estimated
06:48PM -22.7025 134.5007 25° Northeast  Level Aus ATC (Calculated)
06:49PM -22.6764 134.5138 26° Northeast  Level Estimated
06:50PM -22.6461 134.5308 26° Northeast  Level Estimated
06:51PM -22.6022 134.5543 26° Northeast  Level Estimated
06:52PM -22.5582 134.5778 26° Northeast  Level Estimated
06:53PM -22.5143 134.6012 26° Northeast  Level Estimated
06:54PM -22.4703 134.6246 26° Northeast  Level Estimated
06:55PM -22.4264 134.6481 26° Northeast  Level Estimated
06:56PM -22.3824 134.6715 26° Northeast  Level Estimated
06:57PM -22.3385 134.6949 26° Northeast  Level Estimated
06:58PM -22.2945 134.7182 26° Northeast  Level Estimated
06:59PM -22.2505 134.7416 26° Northeast  Level Estimated
07:00PM -22.2066 134.7650 26° Northeast  Level Estimated
07:01PM -22.1626 134.7883 26° Northeast  Level Estimated
07:02PM -22.1186 134.8116 26° Northeast  Level Estimated
07:02PM -22.1263 134.8088 25° Northeast  Level Aus ATC (Calculated)
07:03PM -22.0746 134.8349 26° Northeast  Level Estimated
07:03PM -22.0803 134.8333 360° North  Level Aus ATC (Calculated)
07:03PM -22.0803 134.8333 26° Northeast  Level Aus ATC (Calculated)
07:05PM -22.0238 134.8631 26° Northeast  Level Estimated
07:06PM -21.9798 134.8864 26° Northeast  Level Estimated
07:07PM -21.9358 134.9096 26° Northeast  Level Estimated
07:08PM -21.8918 134.9328 26° Northeast  Level Estimated
07:09PM -21.8478 134.9560 26° Northeast  Level Estimated
07:10PM -21.8037 134.9792 26° Northeast  Level Estimated
07:11PM -21.7597 135.0024 26° Northeast  Level Estimated
07:12PM -21.7157 135.0255 26° Northeast  Level Estimated
07:13PM -21.6717 135.0487 26° Northeast  Level Estimated
07:14PM -21.6276 135.0718 26° Northeast  Level Estimated
07:15PM -21.5837 135.0949 26° Northeast  Level Estimated
07:16PM -21.5396 135.1180 26° Northeast  Level Estimated
07:16PM -21.5447 135.1170 26° Northeast  Level Aus ATC (Calculated)
07:18PM -21.4882 135.1465 26° Northeast  Level Estimated
07:18PM -21.4331 135.1758 208° Southwest  Level Aus ATC (Calculated)
07:19PM -21.4441 135.1695 26° Northeast  Level Estimated
07:20PM -21.3765 135.2053 26° Northeast  Level Estimated
07:21PM -21.3324 135.2282 26° Northeast  Level Estimated
07:22PM -21.2883 135.2512 26° Northeast  Level Estimated
07:23PM -21.2442 135.2741 26° Northeast  Level Estimated
07:24PM -21.2001 135.2970 26° Northeast  Level Estimated
07:25PM -21.1560 135.3199 26° Northeast  Level Estimated
07:26PM -21.1119 135.3427 26° Northeast  Level Estimated
07:27PM -21.0678 135.3656 26° Northeast  Level Estimated
07:28PM -21.0237 135.3884 26° Northeast  Level Estimated
07:29PM -20.9796 135.4113 26° Northeast  Level Estimated
07:30PM -20.9354 135.4341 26° Northeast  Level Estimated
07:31PM -20.8913 135.4569 26° Northeast  Level Estimated
07:32PM -20.8472 135.4797 26° Northeast  Level Estimated
07:33PM -20.8031 135.5025 26° Northeast  Level Estimated
07:34PM -20.7589 135.5252 26° Northeast  Level Estimated
07:35PM -20.7148 135.5480 26° Northeast  Level Estimated
07:36PM -20.6707 135.5707 26° Northeast  Level Estimated
07:36PM -20.6510 135.5852 11° North  Level Aus ATC (Calculated)
07:37PM -20.6372 135.5880 26° Northeast  Level Estimated
07:38PM -20.6372 135.5880 11° North  Level Estimated
07:39PM -20.6372 135.5880 352° North  Level Estimated
07:40PM -20.6372 135.5880 352° North  Level Estimated
07:41PM -20.6372 135.5880 352° North  Level Estimated
07:42PM -20.6372 135.5880 352° North  Level Estimated
07:43PM -20.6372 135.5880 352° North  Level Estimated
07:44PM -20.6372 135.5880 352° North  Level Estimated
07:45PM -20.6372 135.5880 352° North  Level Estimated
07:46PM -20.6372 135.5880 352° North  Level Estimated
07:47PM -20.6372 135.5880 352° North  Level Estimated
07:48PM -20.6372 135.5880 352° North  Level Estimated
07:49PM -20.6372 135.5880 352° North  Level Estimated
07:50PM -20.6372 135.5880 352° North  Level Estimated
07:51PM -20.6372 135.5880 352° North  Level Estimated
07:52PM -20.6372 135.5880 352° North  Level Estimated